»·PEaware :: SWA499 KEUG-KSFO

SWA499 :: KEUG-KSFO

FLIGHT INFORMATION

Flight Status: Arrived
Operator:
Southwest Airlines
More flights by this operator :: More flights under this callsign
Pilot: Steve F. (26981)
Aircraft: BOEING 737-900
(B739)
More flights by this aircraft type
Origin: KEUG Mahlon Sweet
United States
Destination: KSFO San Francisco Intl
United States
More flights between these airports :: More routes between these airports
Route: RBG MLBEC BDEGA3
File this flight plan on PilotEdge
Remarks:
Altitude:
(Current/Filed)
35,000ft
Speed:
(Current/Filed)
430kts
Departed: 11-Sep-23 03:12 PM
Arrived: 11-Sep-23 04:25 PM
Distance/Time
Traveled:
393nm/1:13
Distance/Time
To Go:
Arrived

Flight Plot

Page will automatically refresh every two minutes.

Flight plan parsing failed; only flown route is shown


Map Options




Map Legend


Flown Route
Filed Route
Departure Airport
Arrival Airport
Navaid (VOR, NDB)
Fix

Horizontal Profiles

Position Reports

Time Latitude Longitude Heading Altitude Ground
Speed
11-Sep-23 14:50 44.119169 -123.213704 120 377ft 0kts
11-Sep-23 14:51 44.119169 -123.213704 120 377ft 0kts
11-Sep-23 14:52 44.119169 -123.213704 120 377ft 0kts
11-Sep-23 14:53 44.119169 -123.213704 120 377ft 0kts
11-Sep-23 14:54 44.119169 -123.213704 120 377ft 0kts
11-Sep-23 14:55 44.119169 -123.213704 120 377ft 0kts
11-Sep-23 14:56 44.119169 -123.213704 120 377ft 0kts
11-Sep-23 14:57 44.119169 -123.213704 120 377ft 0kts
11-Sep-23 14:58 44.119169 -123.213704 120 377ft 0kts
11-Sep-23 14:59 44.119169 -123.213704 120 377ft 0kts
11-Sep-23 15:00 44.119169 -123.213704 120 377ft 0kts
11-Sep-23 15:01 44.119169 -123.213704 120 377ft 0kts
11-Sep-23 15:02 44.119169 -123.213704 120 377ft 0kts
11-Sep-23 15:03 44.119191 -123.213756 120 377ft 2kts
11-Sep-23 15:04 44.119345 -123.214472 21 377ft 1kts
11-Sep-23 15:05 44.119307 -123.214490 16 377ft 0kts
11-Sep-23 15:06 44.119492 -123.214990 252 377ft 7kts
11-Sep-23 15:07 44.122157 -123.217174 359 377ft 25kts
11-Sep-23 15:08 44.130372 -123.217251 359 377ft 29kts
11-Sep-23 15:09 44.135407 -123.217544 271 377ft 2kts
11-Sep-23 15:10 44.135398 -123.218969 261 377ft 7kts
11-Sep-23 15:11 44.114239 -123.218813 180 576ft 177kts
11-Sep-23 15:12 44.058510 -123.216665 180 3370ft 233kts
11-Sep-23 15:13 43.985603 -123.214810 179 6367ft 274kts
11-Sep-23 15:14 43.908275 -123.212308 180 8952ft 286kts
11-Sep-23 15:15 43.829120 -123.212013 179 9995ft 286kts
11-Sep-23 15:16 43.743861 -123.206812 180 11911ft 341kts
11-Sep-23 15:17 43.641884 -123.203752 180 13750ft 380kts
11-Sep-23 15:18 43.534247 -123.199475 180 16301ft 394kts
11-Sep-23 15:19 43.422765 -123.193765 180 18543ft 407kts
11-Sep-23 15:20 43.307890 -123.187357 180 20490ft 420kts
11-Sep-23 15:21 43.189392 -123.180900 180 22245ft 432kts
11-Sep-23 15:22 43.067759 -123.174249 180 23748ft 442kts
11-Sep-23 15:23 42.943202 -123.167403 180 25048ft 452kts
11-Sep-23 15:24 42.816463 -123.160510 180 26186ft 461kts
11-Sep-23 15:25 42.687349 -123.153507 180 27193ft 468kts
11-Sep-23 15:26 42.556331 -123.146441 180 28067ft 475kts
11-Sep-23 15:27 42.424351 -123.139343 180 29251ft 473kts
11-Sep-23 15:28 42.293057 -123.132318 180 30357ft 471kts
11-Sep-23 15:29 42.162576 -123.125350 180 31439ft 469kts
11-Sep-23 15:30 42.032215 -123.118446 180 32405ft 467kts
11-Sep-23 15:31 41.902719 -123.111605 180 33263ft 465kts
11-Sep-23 15:32 41.773507 -123.104807 180 34044ft 464kts
11-Sep-23 15:33 41.645021 -123.098052 180 34742ft 463kts
11-Sep-23 15:34 41.515828 -123.091316 180 35071ft 464kts
11-Sep-23 15:35 41.387238 -123.084628 180 35074ft 463kts
11-Sep-23 15:36 41.258340 -123.077949 180 35084ft 463kts
11-Sep-23 15:37 41.129568 -123.071300 180 35080ft 463kts
11-Sep-23 15:38 41.000942 -123.064705 180 35073ft 463kts
11-Sep-23 15:39 40.871556 -123.058046 180 35055ft 464kts
11-Sep-23 15:40 40.742505 -123.051502 180 35051ft 464kts
11-Sep-23 15:41 40.613418 -123.044946 180 35046ft 465kts
11-Sep-23 15:42 40.484438 -123.038423 180 35037ft 464kts
11-Sep-23 15:43 40.355038 -123.031868 180 35031ft 465kts
11-Sep-23 15:44 40.225789 -123.025401 180 35001ft 465kts
11-Sep-23 15:45 40.096570 -123.018938 180 34995ft 465kts
11-Sep-23 15:46 39.967167 -123.012474 180 34995ft 465kts
11-Sep-23 15:47 39.837811 -123.006071 180 34992ft 465kts
11-Sep-23 15:48 39.708176 -122.999659 180 35000ft 465kts
11-Sep-23 15:49 39.578819 -122.993278 180 35000ft 465kts
11-Sep-23 15:50 39.449866 -122.986943 180 34999ft 465kts
11-Sep-23 15:51 39.320480 -122.980624 180 34999ft 464kts
11-Sep-23 15:52 39.191456 -122.974334 180 34999ft 464kts
11-Sep-23 15:53 39.062173 -122.968043 180 34054ft 466kts
11-Sep-23 15:54 38.931704 -122.961725 180 31689ft 468kts
11-Sep-23 15:55 38.805487 -122.938852 168 29292ft 453kts
11-Sep-23 15:56 38.684602 -122.902627 169 26887ft 438kts
11-Sep-23 15:57 38.567883 -122.868243 168 24491ft 425kts
11-Sep-23 15:58 38.455076 -122.834941 168 22586ft 403kts
11-Sep-23 15:59 38.347935 -122.803551 168 21088ft 393kts
11-Sep-23 16:00 38.242336 -122.772647 168 19509ft 385kts
11-Sep-23 16:01 38.139153 -122.742550 168 17827ft 377kts
11-Sep-23 16:02 38.037738 -122.713182 168 15846ft 371kts
11-Sep-23 16:03 37.938439 -122.684488 168 13837ft 359kts
11-Sep-23 16:04 37.853153 -122.625428 138 11836ft 351kts
11-Sep-23 16:05 37.781004 -122.547637 140 10999ft 331kts
11-Sep-23 16:06 37.715215 -122.477924 140 10994ft 296kts
11-Sep-23 16:07 37.651740 -122.410493 140 11014ft 299kts
11-Sep-23 16:08 37.584377 -122.352667 153 10977ft 288kts
11-Sep-23 16:09 37.514406 -122.307255 153 9608ft 280kts
11-Sep-23 16:10 37.445720 -122.263409 153 8254ft 274kts
11-Sep-23 16:11 37.378031 -122.220392 153 6874ft 270kts
11-Sep-23 16:12 37.312360 -122.178791 153 5992ft 248kts
11-Sep-23 16:13 37.302033 -122.112172 41 6013ft 236kts
11-Sep-23 16:14 37.355630 -122.064409 33 6005ft 236kts
11-Sep-23 16:15 37.409879 -122.017420 33 5979ft 234kts
11-Sep-23 16:16 37.466501 -121.992544 330 4383ft 226kts
11-Sep-23 16:17 37.488053 -122.058428 281 4010ft 215kts
11-Sep-23 16:18 37.514293 -122.126905 297 4022ft 216kts
11-Sep-23 16:19 37.542405 -122.193711 296 3081ft 211kts
11-Sep-23 16:20 37.569095 -122.257331 296 1831ft 188kts
11-Sep-23 16:21 37.589673 -122.306044 295 1019ft 139kts
11-Sep-23 16:23 37.606949 -122.346901 295 256ft 124kts
11-Sep-23 16:24 37.618764 -122.375095 296 21ft 44kts
11-Sep-23 16:25 37.618624 -122.380059 135 21ft 10kts
11-Sep-23 16:26 37.615144 -122.380622 207 21ft 16kts
11-Sep-23 16:27 37.609985 -122.384186 234 21ft 21kts
11-Sep-23 16:28 37.610151 -122.389667 266 21ft 15kts
11-Sep-23 16:29 37.611279 -122.390361 41 21ft 0kts

Navigation Log

Ident Type
Flight plan parsing failed, navigation log unavailable